sensor_id;sensor_type;location;lat;lon;timestamp;P1;durP1;ratioP1;P2;durP2;ratioP2
3591;SDS011;1810;48.720;9.094;2023-10-08T00:01:44;931.42;;;863.83;;
3591;SDS011;1810;48.720;9.094;2023-10-08T00:04:16;927.40;;;860.47;;
3591;SDS011;1810;48.720;9.094;2023-10-08T00:06:46;940.88;;;872.00;;
3591;SDS011;1810;48.720;9.094;2023-10-08T00:09:21;932.78;;;865.13;;
3591;SDS011;1810;48.720;9.094;2023-10-08T00:12:00;945.78;;;876.22;;
3591;SDS011;1810;48.720;9.094;2023-10-08T00:14:31;923.88;;;857.25;;
3591;SDS011;1810;48.720;9.094;2023-10-08T00:17:14;916.00;;;851.13;;
3591;SDS011;1810;48.720;9.094;2023-10-08T00:19:47;924.90;;;858.67;;
3591;SDS011;1810;48.720;9.094;2023-10-08T00:22:21;901.17;;;837.30;;
3591;SDS011;1810;48.720;9.094;2023-10-08T00:24:52;948.95;;;878.75;;
3591;SDS011;1810;48.720;9.094;2023-10-08T00:27:24;934.00;;;866.03;;
3591;SDS011;1810;48.720;9.094;2023-10-08T00:29:53;926.90;;;858.95;;
3591;SDS011;1810;48.720;9.094;2023-10-08T00:32:24;931.22;;;863.38;;
3591;SDS011;1810;48.720;9.094;2023-10-08T00:34:54;925.42;;;858.65;;
3591;SDS011;1810;48.720;9.094;2023-10-08T00:37:28;928.75;;;862.40;;
3591;SDS011;1810;48.720;9.094;2023-10-08T00:39:59;914.10;;;848.25;;
3591;SDS011;1810;48.720;9.094;2023-10-08T00:42:31;882.83;;;821.05;;
3591;SDS011;1810;48.720;9.094;2023-10-08T00:45:00;924.78;;;858.60;;
3591;SDS011;1810;48.720;9.094;2023-10-08T00:47:34;910.15;;;845.78;;
3591;SDS011;1810;48.720;9.094;2023-10-08T00:50:11;880.53;;;819.55;;
3591;SDS011;1810;48.720;9.094;2023-10-08T00:52:48;847.10;;;789.55;;
3591;SDS011;1810;48.720;9.094;2023-10-08T00:55:30;864.33;;;805.00;;
3591;SDS011;1810;48.720;9.094;2023-10-08T00:58:04;900.30;;;837.00;;
3591;SDS011;1810;48.720;9.094;2023-10-08T01:00:52;923.97;;;857.30;;
3591;SDS011;1810;48.720;9.094;2023-10-08T01:03:28;914.58;;;849.22;;
3591;SDS011;1810;48.720;9.094;2023-10-08T01:06:04;932.95;;;864.58;;
3591;SDS011;1810;48.720;9.094;2023-10-08T01:08:38;916.28;;;850.28;;
3591;SDS011;1810;48.720;9.094;2023-10-08T01:11:17;898.80;;;834.92;;
3591;SDS011;1810;48.720;9.094;2023-10-08T01:13:58;922.45;;;855.97;;
3591;SDS011;1810;48.720;9.094;2023-10-08T01:16:27;940.42;;;871.67;;
3591;SDS011;1810;48.720;9.094;2023-10-08T01:19:00;867.07;;;806.73;;
3591;SDS011;1810;48.720;9.094;2023-10-08T01:21:36;925.33;;;858.42;;
3591;SDS011;1810;48.720;9.094;2023-10-08T01:24:13;926.45;;;859.13;;
3591;SDS011;1810;48.720;9.094;2023-10-08T01:26:45;935.65;;;867.17;;
3591;SDS011;1810;48.720;9.094;2023-10-08T01:29:17;934.78;;;866.63;;
3591;SDS011;1810;48.720;9.094;2023-10-08T01:31:52;927.15;;;859.88;;
3591;SDS011;1810;48.720;9.094;2023-10-08T01:34:26;940.88;;;872.33;;
3591;SDS011;1810;48.720;9.094;2023-10-08T01:39:39;927.90;;;860.85;;
3591;SDS011;1810;48.720;9.094;2023-10-08T01:42:09;929.20;;;862.00;;
3591;SDS011;1810;48.720;9.094;2023-10-08T01:44:44;933.40;;;866.20;;
3591;SDS011;1810;48.720;9.094;2023-10-08T01:47:17;926.08;;;859.05;;
3591;SDS011;1810;48.720;9.094;2023-10-08T01:49:47;933.45;;;865.92;;
3591;SDS011;1810;48.720;9.094;2023-10-08T01:52:18;917.33;;;851.60;;
3591;SDS011;1810;48.720;9.094;2023-10-08T01:54:50;937.13;;;869.53;;
3591;SDS011;1810;48.720;9.094;2023-10-08T01:57:21;924.20;;;857.33;;
3591;SDS011;1810;48.720;9.094;2023-10-08T01:59:50;936.47;;;868.75;;
3591;SDS011;1810;48.720;9.094;2023-10-08T02:02:23;924.97;;;858.95;;
3591;SDS011;1810;48.720;9.094;2023-10-08T02:04:55;965.00;;;892.30;;
3591;SDS011;1810;48.720;9.094;2023-10-08T02:07:24;931.20;;;864.25;;
3591;SDS011;1810;48.720;9.094;2023-10-08T02:09:55;926.78;;;860.63;;
3591;SDS011;1810;48.720;9.094;2023-10-08T02:12:26;908.40;;;844.08;;
3591;SDS011;1810;48.720;9.094;2023-10-08T02:14:55;904.53;;;840.88;;
3591;SDS011;1810;48.720;9.094;2023-10-08T02:17:29;919.10;;;854.15;;
3591;SDS011;1810;48.720;9.094;2023-10-08T02:20:00;896.83;;;834.13;;
3591;SDS011;1810;48.720;9.094;2023-10-08T02:22:32;894.08;;;831.33;;
3591;SDS011;1810;48.720;9.094;2023-10-08T02:25:05;887.05;;;825.45;;
3591;SDS011;1810;48.720;9.094;2023-10-08T02:27:38;861.70;;;802.72;;
3591;SDS011;1810;48.720;9.094;2023-10-08T02:30:09;885.13;;;824.33;;
3591;SDS011;1810;48.720;9.094;2023-10-08T02:32:46;868.50;;;809.35;;
3591;SDS011;1810;48.720;9.094;2023-10-08T02:35:22;887.90;;;826.42;;
3591;SDS011;1810;48.720;9.094;2023-10-08T02:37:51;901.10;;;837.53;;
3591;SDS011;1810;48.720;9.094;2023-10-08T02:40:23;924.15;;;857.80;;
3591;SDS011;1810;48.720;9.094;2023-10-08T02:42:56;937.50;;;869.35;;
3591;SDS011;1810;48.720;9.094;2023-10-08T02:45:27;951.05;;;880.03;;
3591;SDS011;1810;48.720;9.094;2023-10-08T02:47:58;955.85;;;884.60;;
3591;SDS011;1810;48.720;9.094;2023-10-08T02:50:30;945.22;;;875.78;;
3591;SDS011;1810;48.720;9.094;2023-10-08T02:53:02;909.60;;;844.65;;
3591;SDS011;1810;48.720;9.094;2023-10-08T02:55:41;916.38;;;850.78;;
3591;SDS011;1810;48.720;9.094;2023-10-08T02:58:11;906.92;;;842.80;;
3591;SDS011;1810;48.720;9.094;2023-10-08T03:00:42;897.63;;;834.15;;
3591;SDS011;1810;48.720;9.094;2023-10-08T03:03:13;878.55;;;817.97;;
3591;SDS011;1810;48.720;9.094;2023-10-08T03:05:45;874.20;;;813.75;;
3591;SDS011;1810;48.720;9.094;2023-10-08T03:08:21;862.33;;;803.10;;
3591;SDS011;1810;48.720;9.094;2023-10-08T03:13:46;866.22;;;807.45;;
3591;SDS011;1810;48.720;9.094;2023-10-08T03:16:18;856.40;;;798.10;;
3591;SDS011;1810;48.720;9.094;2023-10-08T03:19:01;852.83;;;794.63;;
3591;SDS011;1810;48.720;9.094;2023-10-08T03:21:35;848.63;;;791.67;;
3591;SDS011;1810;48.720;9.094;2023-10-08T03:24:17;871.85;;;812.17;;
3591;SDS011;1810;48.720;9.094;2023-10-08T03:27:08;906.38;;;841.70;;
3591;SDS011;1810;48.720;9.094;2023-10-08T03:29:48;917.00;;;850.92;;
3591;SDS011;1810;48.720;9.094;2023-10-08T03:32:21;929.08;;;861.28;;
3591;SDS011;1810;48.720;9.094;2023-10-08T03:34:56;935.95;;;867.83;;
3591;SDS011;1810;48.720;9.094;2023-10-08T03:37:26;931.72;;;863.60;;
3591;SDS011;1810;48.720;9.094;2023-10-08T03:40:08;956.10;;;885.33;;
3591;SDS011;1810;48.720;9.094;2023-10-08T03:42:55;977.80;;;904.00;;
3591;SDS011;1810;48.720;9.094;2023-10-08T03:48:08;962.38;;;889.80;;
3591;SDS011;1810;48.720;9.094;2023-10-08T03:50:42;952.40;;;882.20;;
3591;SDS011;1810;48.720;9.094;2023-10-08T03:53:11;944.92;;;875.40;;
3591;SDS011;1810;48.720;9.094;2023-10-08T03:55:40;909.50;;;844.72;;
3591;SDS011;1810;48.720;9.094;2023-10-08T03:58:10;948.30;;;878.08;;
3591;SDS011;1810;48.720;9.094;2023-10-08T04:00:55;886.95;;;824.45;;
3591;SDS011;1810;48.720;9.094;2023-10-08T04:03:34;949.05;;;879.47;;
3591;SDS011;1810;48.720;9.094;2023-10-08T04:06:25;951.40;;;881.20;;
3591;SDS011;1810;48.720;9.094;2023-10-08T04:09:05;958.47;;;887.45;;
3591;SDS011;1810;48.720;9.094;2023-10-08T04:11:43;918.80;;;853.00;;
3591;SDS011;1810;48.720;9.094;2023-10-08T04:14:27;944.35;;;874.65;;
3591;SDS011;1810;48.720;9.094;2023-10-08T04:16:56;944.53;;;875.58;;
3591;SDS011;1810;48.720;9.094;2023-10-08T04:19:25;905.28;;;841.40;;
3591;SDS011;1810;48.720;9.094;2023-10-08T04:21:56;943.88;;;874.45;;
3591;SDS011;1810;48.720;9.094;2023-10-08T04:24:25;918.42;;;852.95;;
3591;SDS011;1810;48.720;9.094;2023-10-08T04:27:01;906.55;;;843.15;;
3591;SDS011;1810;48.720;9.094;2023-10-08T04:29:33;838.83;;;782.10;;
3591;SDS011;1810;48.720;9.094;2023-10-08T04:32:04;917.35;;;852.47;;
3591;SDS011;1810;48.720;9.094;2023-10-08T04:34:38;860.90;;;801.88;;
3591;SDS011;1810;48.720;9.094;2023-10-08T04:37:15;867.83;;;809.40;;
3591;SDS011;1810;48.720;9.094;2023-10-08T04:39:47;854.33;;;796.83;;
3591;SDS011;1810;48.720;9.094;2023-10-08T04:42:25;859.33;;;800.70;;
3591;SDS011;1810;48.720;9.094;2023-10-08T04:44:58;859.05;;;801.05;;
3591;SDS011;1810;48.720;9.094;2023-10-08T04:47:28;875.97;;;816.13;;
3591;SDS011;1810;48.720;9.094;2023-10-08T04:50:02;863.50;;;804.42;;
3591;SDS011;1810;48.720;9.094;2023-10-08T04:52:33;866.72;;;807.50;;
3591;SDS011;1810;48.720;9.094;2023-10-08T04:55:12;870.03;;;810.13;;
3591;SDS011;1810;48.720;9.094;2023-10-08T05:00:21;863.33;;;804.25;;
3591;SDS011;1810;48.720;9.094;2023-10-08T05:03:07;865.58;;;806.20;;
3591;SDS011;1810;48.720;9.094;2023-10-08T05:05:41;861.33;;;802.42;;
3591;SDS011;1810;48.720;9.094;2023-10-08T05:08:34;854.88;;;797.35;;
3591;SDS011;1810;48.720;9.094;2023-10-08T05:11:24;882.90;;;822.40;;
3591;SDS011;1810;48.720;9.094;2023-10-08T05:14:03;886.95;;;825.78;;
3591;SDS011;1810;48.720;9.094;2023-10-08T05:16:44;900.50;;;837.22;;
3591;SDS011;1810;48.720;9.094;2023-10-08T05:19:27;872.45;;;812.00;;
3591;SDS011;1810;48.720;9.094;2023-10-08T05:22:17;867.92;;;808.35;;
3591;SDS011;1810;48.720;9.094;2023-10-08T05:25:10;889.53;;;827.92;;
3591;SDS011;1810;48.720;9.094;2023-10-08T05:27:51;873.85;;;813.80;;
3591;SDS011;1810;48.720;9.094;2023-10-08T05:30:38;928.85;;;861.60;;
3591;SDS011;1810;48.720;9.094;2023-10-08T05:33:11;868.40;;;808.67;;
3591;SDS011;1810;48.720;9.094;2023-10-08T05:36:00;905.08;;;841.40;;
3591;SDS011;1810;48.720;9.094;2023-10-08T05:38:37;936.92;;;869.28;;
3591;SDS011;1810;48.720;9.094;2023-10-08T05:41:15;864.40;;;804.97;;
3591;SDS011;1810;48.720;9.094;2023-10-08T05:44:05;927.80;;;860.83;;
3591;SDS011;1810;48.720;9.094;2023-10-08T05:46:57;892.88;;;830.20;;
3591;SDS011;1810;48.720;9.094;2023-10-08T05:49:51;912.63;;;847.55;;
3591;SDS011;1810;48.720;9.094;2023-10-08T05:52:43;908.25;;;843.80;;
3591;SDS011;1810;48.720;9.094;2023-10-08T05:55:28;891.63;;;828.83;;
3591;SDS011;1810;48.720;9.094;2023-10-08T05:58:01;888.25;;;825.97;;
3591;SDS011;1810;48.720;9.094;2023-10-08T06:00:51;916.33;;;851.30;;
3591;SDS011;1810;48.720;9.094;2023-10-08T06:03:34;921.40;;;855.30;;
3591;SDS011;1810;48.720;9.094;2023-10-08T06:06:17;854.85;;;796.70;;
3591;SDS011;1810;48.720;9.094;2023-10-08T06:09:06;882.97;;;820.72;;
3591;SDS011;1810;48.720;9.094;2023-10-08T06:11:49;926.28;;;858.97;;
3591;SDS011;1810;48.720;9.094;2023-10-08T06:14:36;865.22;;;805.80;;
3591;SDS011;1810;48.720;9.094;2023-10-08T06:17:35;896.20;;;833.47;;
3591;SDS011;1810;48.720;9.094;2023-10-08T06:20:24;861.05;;;802.33;;
3591;SDS011;1810;48.720;9.094;2023-10-08T06:22:55;863.33;;;804.67;;
3591;SDS011;1810;48.720;9.094;2023-10-08T06:25:39;877.67;;;817.17;;
3591;SDS011;1810;48.720;9.094;2023-10-08T06:28:20;871.08;;;811.55;;
3591;SDS011;1810;48.720;9.094;2023-10-08T06:30:52;889.88;;;827.60;;
3591;SDS011;1810;48.720;9.094;2023-10-08T06:33:22;875.42;;;815.15;;
3591;SDS011;1810;48.720;9.094;2023-10-08T06:35:52;878.10;;;817.55;;
3591;SDS011;1810;48.720;9.094;2023-10-08T06:38:31;893.22;;;830.55;;
3591;SDS011;1810;48.720;9.094;2023-10-08T06:41:02;888.03;;;826.58;;
3591;SDS011;1810;48.720;9.094;2023-10-08T06:43:35;892.80;;;830.60;;
3591;SDS011;1810;48.720;9.094;2023-10-08T06:46:04;900.97;;;837.45;;
3591;SDS011;1810;48.720;9.094;2023-10-08T06:48:34;891.10;;;828.90;;
3591;SDS011;1810;48.720;9.094;2023-10-08T06:51:08;894.90;;;832.85;;
3591;SDS011;1810;48.720;9.094;2023-10-08T06:53:42;927.50;;;861.22;;
3591;SDS011;1810;48.720;9.094;2023-10-08T06:56:12;895.60;;;832.72;;
3591;SDS011;1810;48.720;9.094;2023-10-08T06:58:41;901.00;;;838.28;;
3591;SDS011;1810;48.720;9.094;2023-10-08T07:01:12;913.13;;;848.65;;
3591;SDS011;1810;48.720;9.094;2023-10-08T07:03:47;956.58;;;886.47;;
3591;SDS011;1810;48.720;9.094;2023-10-08T07:06:17;922.20;;;856.50;;
3591;SDS011;1810;48.720;9.094;2023-10-08T07:08:59;919.75;;;854.40;;
3591;SDS011;1810;48.720;9.094;2023-10-08T07:11:32;894.97;;;832.08;;
3591;SDS011;1810;48.720;9.094;2023-10-08T07:14:01;917.45;;;851.58;;
3591;SDS011;1810;48.720;9.094;2023-10-08T07:16:31;921.33;;;855.30;;
3591;SDS011;1810;48.720;9.094;2023-10-08T07:19:01;896.00;;;833.00;;
3591;SDS011;1810;48.720;9.094;2023-10-08T07:21:42;909.30;;;844.33;;
3591;SDS011;1810;48.720;9.094;2023-10-08T07:24:47;920.88;;;855.35;;
3591;SDS011;1810;48.720;9.094;2023-10-08T07:27:20;905.90;;;841.58;;
3591;SDS011;1810;48.720;9.094;2023-10-08T07:29:57;865.45;;;806.55;;
3591;SDS011;1810;48.720;9.094;2023-10-08T07:32:29;899.50;;;832.72;;
3591;SDS011;1810;48.720;9.094;2023-10-08T07:34:59;787.85;;;736.70;;
3591;SDS011;1810;48.720;9.094;2023-10-08T07:37:49;816.30;;;762.60;;
3591;SDS011;1810;48.720;9.094;2023-10-08T07:40:21;780.33;;;730.03;;
3591;SDS011;1810;48.720;9.094;2023-10-08T07:42:54;773.47;;;723.33;;
3591;SDS011;1810;48.720;9.094;2023-10-08T07:45:25;788.67;;;737.58;;
3591;SDS011;1810;48.720;9.094;2023-10-08T07:47:53;790.40;;;738.70;;
3591;SDS011;1810;48.720;9.094;2023-10-08T07:50:24;760.53;;;711.63;;
3591;SDS011;1810;48.720;9.094;2023-10-08T07:52:57;810.35;;;756.92;;
3591;SDS011;1810;48.720;9.094;2023-10-08T07:55:27;776.05;;;726.28;;
3591;SDS011;1810;48.720;9.094;2023-10-08T07:57:59;717.60;;;672.92;;
3591;SDS011;1810;48.720;9.094;2023-10-08T08:00:31;817.20;;;763.17;;
3591;SDS011;1810;48.720;9.094;2023-10-08T08:03:06;732.25;;;685.92;;
3591;SDS011;1810;48.720;9.094;2023-10-08T08:05:36;774.78;;;725.03;;
3591;SDS011;1810;48.720;9.094;2023-10-08T08:08:10;784.17;;;733.28;;
3591;SDS011;1810;48.720;9.094;2023-10-08T08:10:50;791.13;;;739.92;;
3591;SDS011;1810;48.720;9.094;2023-10-08T08:13:24;788.10;;;736.80;;
3591;SDS011;1810;48.720;9.094;2023-10-08T08:15:59;766.50;;;717.17;;
3591;SDS011;1810;48.720;9.094;2023-10-08T08:22:16;886.40;;;824.95;;
3591;SDS011;1810;48.720;9.094;2023-10-08T08:24:55;777.17;;;727.08;;
3591;SDS011;1810;48.720;9.094;2023-10-08T08:27:36;780.25;;;729.38;;
3591;SDS011;1810;48.720;9.094;2023-10-08T08:30:33;832.67;;;777.28;;
3591;SDS011;1810;48.720;9.094;2023-10-08T08:33:06;877.15;;;816.70;;
3591;SDS011;1810;48.720;9.094;2023-10-08T08:35:40;818.38;;;764.13;;
3591;SDS011;1810;48.720;9.094;2023-10-08T08:38:13;838.97;;;782.88;;
3591;SDS011;1810;48.720;9.094;2023-10-08T08:40:42;891.95;;;830.33;;
3591;SDS011;1810;48.720;9.094;2023-10-08T08:43:26;860.17;;;801.70;;
3591;SDS011;1810;48.720;9.094;2023-10-08T08:46:09;831.33;;;775.65;;
3591;SDS011;1810;48.720;9.094;2023-10-08T08:49:21;865.88;;;806.05;;
3591;SDS011;1810;48.720;9.094;2023-10-08T08:51:50;888.80;;;826.75;;
3591;SDS011;1810;48.720;9.094;2023-10-08T08:54:22;874.97;;;815.10;;
3591;SDS011;1810;48.720;9.094;2023-10-08T08:57:03;910.42;;;846.15;;
3591;SDS011;1810;48.720;9.094;2023-10-08T09:15:02;842.20;;;785.20;;
3591;SDS011;1810;48.720;9.094;2023-10-08T09:26:16;857.28;;;798.65;;
3591;SDS011;1810;48.720;9.094;2023-10-08T09:36:44;789.60;;;738.20;;
3591;SDS011;1810;48.720;9.094;2023-10-08T09:39:16;788.22;;;737.15;;
3591;SDS011;1810;48.720;9.094;2023-10-08T09:41:49;792.58;;;740.33;;
3591;SDS011;1810;48.720;9.094;2023-10-08T09:44:20;799.08;;;746.17;;
3591;SDS011;1810;48.720;9.094;2023-10-08T09:46:52;805.05;;;752.13;;
3591;SDS011;1810;48.720;9.094;2023-10-08T09:49:26;851.40;;;793.85;;
3591;SDS011;1810;48.720;9.094;2023-10-08T09:52:10;813.90;;;759.85;;
3591;SDS011;1810;48.720;9.094;2023-10-08T09:54:42;820.80;;;766.40;;
3591;SDS011;1810;48.720;9.094;2023-10-08T09:57:17;805.78;;;752.00;;
3591;SDS011;1810;48.720;9.094;2023-10-08T09:59:46;872.70;;;811.63;;
3591;SDS011;1810;48.720;9.094;2023-10-08T10:02:18;863.78;;;804.28;;
3591;SDS011;1810;48.720;9.094;2023-10-08T10:04:50;827.22;;;771.83;;
3591;SDS011;1810;48.720;9.094;2023-10-08T10:07:27;831.03;;;775.72;;
3591;SDS011;1810;48.720;9.094;2023-10-08T10:09:58;835.90;;;779.50;;
3591;SDS011;1810;48.720;9.094;2023-10-08T10:12:27;831.38;;;775.95;;
3591;SDS011;1810;48.720;9.094;2023-10-08T10:14:56;840.15;;;783.28;;
3591;SDS011;1810;48.720;9.094;2023-10-08T10:17:28;828.70;;;772.97;;
3591;SDS011;1810;48.720;9.094;2023-10-08T10:20:10;889.85;;;828.33;;
3591;SDS011;1810;48.720;9.094;2023-10-08T10:22:43;826.53;;;771.15;;
3591;SDS011;1810;48.720;9.094;2023-10-08T10:25:12;832.90;;;776.80;;
3591;SDS011;1810;48.720;9.094;2023-10-08T10:33:19;829.95;;;774.25;;
3591;SDS011;1810;48.720;9.094;2023-10-08T10:35:49;830.67;;;774.88;;
3591;SDS011;1810;48.720;9.094;2023-10-08T10:38:22;839.88;;;783.47;;
3591;SDS011;1810;48.720;9.094;2023-10-08T10:40:53;830.30;;;774.55;;
3591;SDS011;1810;48.720;9.094;2023-10-08T10:43:24;823.30;;;767.75;;
3591;SDS011;1810;48.720;9.094;2023-10-08T10:45:59;854.05;;;796.65;;
3591;SDS011;1810;48.720;9.094;2023-10-08T10:48:51;830.67;;;775.15;;
3591;SDS011;1810;48.720;9.094;2023-10-08T10:51:33;833.22;;;777.40;;
3591;SDS011;1810;48.720;9.094;2023-10-08T10:54:02;834.30;;;778.13;;
3591;SDS011;1810;48.720;9.094;2023-10-08T10:56:36;829.15;;;773.67;;
3591;SDS011;1810;48.720;9.094;2023-10-08T10:59:10;871.27;;;810.37;;
3591;SDS011;1810;48.720;9.094;2023-10-08T11:01:46;833.17;;;777.72;;
3591;SDS011;1810;48.720;9.094;2023-10-08T11:04:19;825.83;;;770.42;;
3591;SDS011;1810;48.720;9.094;2023-10-08T11:06:55;824.92;;;769.83;;
3591;SDS011;1810;48.720;9.094;2023-10-08T11:09:26;850.05;;;792.70;;
3591;SDS011;1810;48.720;9.094;2023-10-08T11:12:06;824.95;;;769.03;;
3591;SDS011;1810;48.720;9.094;2023-10-08T11:14:38;832.58;;;776.83;;
3591;SDS011;1810;48.720;9.094;2023-10-08T11:17:13;872.25;;;811.80;;
3591;SDS011;1810;48.720;9.094;2023-10-08T11:19:43;836.75;;;780.92;;
3591;SDS011;1810;48.720;9.094;2023-10-08T11:22:13;833.85;;;777.97;;
3591;SDS011;1810;48.720;9.094;2023-10-08T11:24:51;855.88;;;797.20;;
3591;SDS011;1810;48.720;9.094;2023-10-08T11:27:22;827.47;;;771.92;;
3591;SDS011;1810;48.720;9.094;2023-10-08T11:29:56;838.85;;;782.50;;
3591;SDS011;1810;48.720;9.094;2023-10-08T11:32:27;832.05;;;776.35;;
3591;SDS011;1810;48.720;9.094;2023-10-08T11:34:59;829.45;;;773.88;;
3591;SDS011;1810;48.720;9.094;2023-10-08T11:37:51;877.08;;;816.70;;
3591;SDS011;1810;48.720;9.094;2023-10-08T11:40:32;835.55;;;779.50;;
3591;SDS011;1810;48.720;9.094;2023-10-08T11:43:23;837.63;;;781.13;;
3591;SDS011;1810;48.720;9.094;2023-10-08T11:45:53;852.65;;;795.15;;
3591;SDS011;1810;48.720;9.094;2023-10-08T11:48:21;836.78;;;780.55;;
3591;SDS011;1810;48.720;9.094;2023-10-08T11:50:55;829.20;;;774.08;;
3591;SDS011;1810;48.720;9.094;2023-10-08T11:53:24;831.08;;;775.17;;
3591;SDS011;1810;48.720;9.094;2023-10-08T11:55:53;850.95;;;793.97;;
3591;SDS011;1810;48.720;9.094;2023-10-08T11:58:23;905.55;;;841.40;;
3591;SDS011;1810;48.720;9.094;2023-10-08T12:01:04;837.75;;;781.47;;
3591;SDS011;1810;48.720;9.094;2023-10-08T12:03:32;868.38;;;808.55;;
3591;SDS011;1810;48.720;9.094;2023-10-08T12:06:02;833.55;;;778.05;;
3591;SDS011;1810;48.720;9.094;2023-10-08T12:08:31;834.78;;;779.38;;
3591;SDS011;1810;48.720;9.094;2023-10-08T12:13:38;831.22;;;775.88;;
3591;SDS011;1810;48.720;9.094;2023-10-08T12:16:12;830.58;;;775.03;;
3591;SDS011;1810;48.720;9.094;2023-10-08T12:18:45;896.83;;;832.95;;
3591;SDS011;1810;48.720;9.094;2023-10-08T12:21:19;836.00;;;779.58;;
3591;SDS011;1810;48.720;9.094;2023-10-08T12:23:48;873.65;;;813.58;;
3591;SDS011;1810;48.720;9.094;2023-10-08T12:26:19;876.63;;;816.25;;
3591;SDS011;1810;48.720;9.094;2023-10-08T12:28:48;906.30;;;840.38;;
3591;SDS011;1810;48.720;9.094;2023-10-08T12:31:16;836.58;;;780.00;;
3591;SDS011;1810;48.720;9.094;2023-10-08T12:33:48;845.13;;;788.35;;
3591;SDS011;1810;48.720;9.094;2023-10-08T12:36:19;852.83;;;794.90;;
3591;SDS011;1810;48.720;9.094;2023-10-08T12:38:50;841.30;;;783.85;;
3591;SDS011;1810;48.720;9.094;2023-10-08T12:41:25;842.10;;;785.30;;
3591;SDS011;1810;48.720;9.094;2023-10-08T12:43:54;844.10;;;787.00;;
3591;SDS011;1810;48.720;9.094;2023-10-08T12:46:24;839.67;;;782.80;;
3591;SDS011;1810;48.720;9.094;2023-10-08T12:48:57;836.75;;;780.00;;
3591;SDS011;1810;48.720;9.094;2023-10-08T12:51:28;871.60;;;811.10;;
3591;SDS011;1810;48.720;9.094;2023-10-08T12:53:59;831.83;;;775.65;;
3591;SDS011;1810;48.720;9.094;2023-10-08T12:59:06;841.83;;;785.05;;
3591;SDS011;1810;48.720;9.094;2023-10-08T13:01:34;843.35;;;786.13;;
3591;SDS011;1810;48.720;9.094;2023-10-08T13:04:08;837.50;;;781.03;;
3591;SDS011;1810;48.720;9.094;2023-10-08T13:06:42;839.47;;;782.65;;
3591;SDS011;1810;48.720;9.094;2023-10-08T13:09:12;840.85;;;784.17;;
3591;SDS011;1810;48.720;9.094;2023-10-08T13:11:43;875.63;;;814.42;;
3591;SDS011;1810;48.720;9.094;2023-10-08T13:14:12;836.20;;;779.65;;
3591;SDS011;1810;48.720;9.094;2023-10-08T13:16:41;845.00;;;787.83;;
3591;SDS011;1810;48.720;9.094;2023-10-08T13:19:12;838.15;;;781.28;;
3591;SDS011;1810;48.720;9.094;2023-10-08T13:21:42;854.20;;;795.47;;
3591;SDS011;1810;48.720;9.094;2023-10-08T13:24:10;829.75;;;773.90;;
3591;SDS011;1810;48.720;9.094;2023-10-08T13:26:39;850.22;;;792.65;;
3591;SDS011;1810;48.720;9.094;2023-10-08T13:29:15;857.40;;;798.28;;
3591;SDS011;1810;48.720;9.094;2023-10-08T13:31:45;866.20;;;806.55;;
3591;SDS011;1810;48.720;9.094;2023-10-08T13:34:14;844.63;;;787.25;;
3591;SDS011;1810;48.720;9.094;2023-10-08T13:36:43;839.83;;;782.97;;
3591;SDS011;1810;48.720;9.094;2023-10-08T13:39:14;842.22;;;784.47;;
3591;SDS011;1810;48.720;9.094;2023-10-08T13:41:45;871.42;;;811.20;;
3591;SDS011;1810;48.720;9.094;2023-10-08T13:44:16;843.05;;;785.88;;
3591;SDS011;1810;48.720;9.094;2023-10-08T13:46:56;840.47;;;783.20;;
3591;SDS011;1810;48.720;9.094;2023-10-08T13:49:26;856.88;;;797.92;;
3591;SDS011;1810;48.720;9.094;2023-10-08T13:51:56;848.05;;;790.60;;
3591;SDS011;1810;48.720;9.094;2023-10-08T13:54:25;856.13;;;797.10;;
3591;SDS011;1810;48.720;9.094;2023-10-08T13:56:56;846.75;;;788.90;;
3591;SDS011;1810;48.720;9.094;2023-10-08T13:59:28;841.47;;;784.20;;
3591;SDS011;1810;48.720;9.094;2023-10-08T14:01:59;909.08;;;843.22;;
3591;SDS011;1810;48.720;9.094;2023-10-08T14:04:35;859.15;;;800.60;;
3591;SDS011;1810;48.720;9.094;2023-10-08T14:07:07;838.05;;;780.75;;
3591;SDS011;1810;48.720;9.094;2023-10-08T14:09:38;859.38;;;800.67;;
3591;SDS011;1810;48.720;9.094;2023-10-08T14:12:08;838.50;;;781.88;;
3591;SDS011;1810;48.720;9.094;2023-10-08T14:14:39;878.33;;;817.10;;
3591;SDS011;1810;48.720;9.094;2023-10-08T14:17:11;867.38;;;807.58;;
3591;SDS011;1810;48.720;9.094;2023-10-08T14:19:42;848.30;;;790.47;;
3591;SDS011;1810;48.720;9.094;2023-10-08T14:22:18;836.92;;;779.95;;
3591;SDS011;1810;48.720;9.094;2023-10-08T14:24:49;834.20;;;777.78;;
3591;SDS011;1810;48.720;9.094;2023-10-08T14:27:26;882.60;;;821.67;;
3591;SDS011;1810;48.720;9.094;2023-10-08T14:30:00;858.63;;;800.25;;
3591;SDS011;1810;48.720;9.094;2023-10-08T14:32:35;845.83;;;788.47;;
3591;SDS011;1810;48.720;9.094;2023-10-08T14:35:04;845.10;;;787.75;;
3591;SDS011;1810;48.720;9.094;2023-10-08T14:38:06;839.30;;;782.55;;
3591;SDS011;1810;48.720;9.094;2023-10-08T14:40:52;862.17;;;802.63;;
3591;SDS011;1810;48.720;9.094;2023-10-08T14:43:50;838.83;;;782.90;;
3591;SDS011;1810;48.720;9.094;2023-10-08T14:46:20;826.83;;;770.78;;
3591;SDS011;1810;48.720;9.094;2023-10-08T14:48:48;861.65;;;802.55;;
3591;SDS011;1810;48.720;9.094;2023-10-08T14:51:18;834.22;;;778.05;;
3591;SDS011;1810;48.720;9.094;2023-10-08T14:53:47;835.90;;;780.10;;
3591;SDS011;1810;48.720;9.094;2023-10-08T14:56:16;848.45;;;790.85;;
3591;SDS011;1810;48.720;9.094;2023-10-08T14:58:46;864.08;;;804.53;;
3591;SDS011;1810;48.720;9.094;2023-10-08T15:01:15;825.75;;;769.97;;
3591;SDS011;1810;48.720;9.094;2023-10-08T15:03:45;848.47;;;791.00;;
3591;SDS011;1810;48.720;9.094;2023-10-08T15:06:14;841.40;;;784.30;;
3591;SDS011;1810;48.720;9.094;2023-10-08T15:08:43;838.95;;;782.78;;
3591;SDS011;1810;48.720;9.094;2023-10-08T15:11:12;891.63;;;828.72;;
3591;SDS011;1810;48.720;9.094;2023-10-08T15:13:42;849.33;;;791.72;;
3591;SDS011;1810;48.720;9.094;2023-10-08T15:16:12;840.85;;;784.15;;
3591;SDS011;1810;48.720;9.094;2023-10-08T15:18:41;837.13;;;780.70;;
3591;SDS011;1810;48.720;9.094;2023-10-08T15:21:11;835.40;;;779.20;;
3591;SDS011;1810;48.720;9.094;2023-10-08T15:23:39;827.25;;;771.92;;
3591;SDS011;1810;48.720;9.094;2023-10-08T15:26:08;830.60;;;774.85;;
3591;SDS011;1810;48.720;9.094;2023-10-08T15:28:38;829.50;;;773.90;;
3591;SDS011;1810;48.720;9.094;2023-10-08T15:31:07;832.60;;;776.53;;
3591;SDS011;1810;48.720;9.094;2023-10-08T15:33:36;837.88;;;781.45;;
3591;SDS011;1810;48.720;9.094;2023-10-08T15:36:05;845.50;;;789.08;;
3591;SDS011;1810;48.720;9.094;2023-10-08T15:38:35;887.90;;;825.92;;
3591;SDS011;1810;48.720;9.094;2023-10-08T15:41:05;836.50;;;780.15;;
3591;SDS011;1810;48.720;9.094;2023-10-08T15:43:33;912.10;;;847.13;;
3591;SDS011;1810;48.720;9.094;2023-10-08T15:46:02;841.53;;;785.03;;
3591;SDS011;1810;48.720;9.094;2023-10-08T15:48:32;844.33;;;787.53;;
3591;SDS011;1810;48.720;9.094;2023-10-08T15:51:00;840.88;;;784.20;;
3591;SDS011;1810;48.720;9.094;2023-10-08T15:53:31;843.60;;;786.47;;
3591;SDS011;1810;48.720;9.094;2023-10-08T15:56:00;835.05;;;778.75;;
3591;SDS011;1810;48.720;9.094;2023-10-08T15:58:29;843.70;;;787.15;;
3591;SDS011;1810;48.720;9.094;2023-10-08T16:00:58;846.92;;;789.60;;